Terminal Aerodrome Forecast
Issued by NWS Grand Rapids, MI

Home | Current Version | Previous Version | Text Only | Print | Product List | Glossary On
Versions: 1 2 3 4 5 6 7 8 9 10 11 12 13 14 15 16 17 18 19 20 21 22
000
FTUS43 KGRR 010500
TAFGRR
TAF
KGRR 010540Z 0106/0206 09006KT P6SM FEW015 OVC021
     FM010900 12005KT P6SM BKN018
     FM011500 13006KT P6SM BKN025
     FM011900 15007KT P6SM SCT030=

USA.gov is the U.S. government's official web portal to all federal, state and local government web resources and services.